sensor_id;sensor_type;location;lat;lon;timestamp;pressure;altitude;pressure_sealevel;temperature;humidity
77288;BME280;66345;42.694;23.346;2024-03-22T00:01:09;95590.88;;;6.60;48.10
77288;BME280;66345;42.694;23.346;2024-03-22T00:03:34;95598.63;;;6.61;48.55
77288;BME280;66345;42.694;23.346;2024-03-22T00:06:00;95604.97;;;6.34;49.37
77288;BME280;66345;42.694;23.346;2024-03-22T00:08:25;95599.03;;;6.32;49.49
77288;BME280;66345;42.694;23.346;2024-03-22T00:10:51;95612.31;;;6.15;50.63
77288;BME280;66345;42.694;23.346;2024-03-22T00:13:16;95603.44;;;6.16;51.14
77288;BME280;66345;42.694;23.346;2024-03-22T00:15:42;95612.16;;;6.16;50.91
77288;BME280;66345;42.694;23.346;2024-03-22T00:18:09;95605.06;;;5.82;52.07
77288;BME280;66345;42.694;23.346;2024-03-22T00:20:35;95607.25;;;5.61;52.23
77288;BME280;66345;42.694;23.346;2024-03-22T00:23:00;95603.66;;;5.70;52.14
77288;BME280;66345;42.694;23.346;2024-03-22T00:25:26;95593.22;;;5.52;52.19
77288;BME280;66345;42.694;23.346;2024-03-22T00:27:51;95615.06;;;5.79;51.85
77288;BME280;66345;42.694;23.346;2024-03-22T00:30:17;95604.84;;;5.76;51.90
77288;BME280;66345;42.694;23.346;2024-03-22T00:32:42;95606.91;;;5.90;51.53
77288;BME280;66345;42.694;23.346;2024-03-22T00:35:10;95592.34;;;5.78;52.06
77288;BME280;66345;42.694;23.346;2024-03-22T00:37:36;95622.97;;;5.79;51.98
77288;BME280;66345;42.694;23.346;2024-03-22T00:40:01;95615.59;;;5.82;52.76
77288;BME280;66345;42.694;23.346;2024-03-22T00:42:27;95605.78;;;5.93;51.82
77288;BME280;66345;42.694;23.346;2024-03-22T00:44:52;95603.72;;;5.78;52.44
77288;BME280;66345;42.694;23.346;2024-03-22T00:47:20;95611.28;;;5.81;52.71
77288;BME280;66345;42.694;23.346;2024-03-22T00:49:45;95618.16;;;5.48;53.71
77288;BME280;66345;42.694;23.346;2024-03-22T00:52:11;95607.75;;;5.39;54.13
77288;BME280;66345;42.694;23.346;2024-03-22T00:54:36;95607.28;;;5.69;52.87
77288;BME280;66345;42.694;23.346;2024-03-22T00:57:04;95602.59;;;5.55;53.99
77288;BME280;66345;42.694;23.346;2024-03-22T00:59:30;95597.66;;;5.52;54.36
77288;BME280;66345;42.694;23.346;2024-03-22T01:01:55;95609.72;;;5.37;54.79
77288;BME280;66345;42.694;23.346;2024-03-22T01:04:21;95608.94;;;5.00;56.61
77288;BME280;66345;42.694;23.346;2024-03-22T01:06:46;95607.22;;;4.91;56.82
77288;BME280;66345;42.694;23.346;2024-03-22T01:09:12;95609.47;;;4.86;57.28
77288;BME280;66345;42.694;23.346;2024-03-22T01:11:37;95606.97;;;4.67;58.09
77288;BME280;66345;42.694;23.346;2024-03-22T01:14:02;95617.47;;;4.67;57.95
77288;BME280;66345;42.694;23.346;2024-03-22T01:16:28;95616.28;;;4.61;57.81
77288;BME280;66345;42.694;23.346;2024-03-22T01:18:53;95610.88;;;4.63;57.43
77288;BME280;66345;42.694;23.346;2024-03-22T01:21:20;95615.28;;;4.98;56.21
77288;BME280;66345;42.694;23.346;2024-03-22T01:23:53;95602.75;;;5.10;54.97
77288;BME280;66345;42.694;23.346;2024-03-22T01:26:18;95607.00;;;5.28;54.13
77288;BME280;66345;42.694;23.346;2024-03-22T01:28:44;95614.03;;;5.02;54.29
77288;BME280;66345;42.694;23.346;2024-03-22T01:31:09;95616.28;;;4.97;54.60
77288;BME280;66345;42.694;23.346;2024-03-22T01:33:34;95608.69;;;4.94;54.93
77288;BME280;66345;42.694;23.346;2024-03-22T01:36:00;95605.47;;;5.00;55.36
77288;BME280;66345;42.694;23.346;2024-03-22T01:38:26;95608.47;;;4.87;55.24
77288;BME280;66345;42.694;23.346;2024-03-22T01:40:51;95612.53;;;4.99;54.57
77288;BME280;66345;42.694;23.346;2024-03-22T01:43:17;95612.31;;;4.93;55.21
77288;BME280;66345;42.694;23.346;2024-03-22T01:45:42;95605.91;;;4.95;55.21
77288;BME280;66345;42.694;23.346;2024-03-22T01:48:08;95602.47;;;4.95;55.46
77288;BME280;66345;42.694;23.346;2024-03-22T01:50:34;95604.84;;;5.24;54.64
77288;BME280;66345;42.694;23.346;2024-03-22T01:53:00;95593.88;;;5.11;55.44
77288;BME280;66345;42.694;23.346;2024-03-22T01:55:27;95607.91;;;5.37;54.87
77288;BME280;66345;42.694;23.346;2024-03-22T01:57:54;95604.50;;;5.45;54.91
77288;BME280;66345;42.694;23.346;2024-03-22T02:00:20;95612.69;;;5.42;54.76
77288;BME280;66345;42.694;23.346;2024-03-22T02:02:46;95603.34;;;5.47;54.54
77288;BME280;66345;42.694;23.346;2024-03-22T02:05:16;95606.81;;;5.48;54.27
77288;BME280;66345;42.694;23.346;2024-03-22T02:07:44;95608.88;;;5.62;54.48
77288;BME280;66345;42.694;23.346;2024-03-22T02:10:10;95606.00;;;5.47;55.05
77288;BME280;66345;42.694;23.346;2024-03-22T02:12:37;95613.13;;;5.55;54.42
77288;BME280;66345;42.694;23.346;2024-03-22T02:15:03;95606.50;;;5.51;54.97
77288;BME280;66345;42.694;23.346;2024-03-22T02:17:28;95606.00;;;5.47;54.57
77288;BME280;66345;42.694;23.346;2024-03-22T02:19:54;95620.41;;;5.61;54.25
77288;BME280;66345;42.694;23.346;2024-03-22T02:22:19;95606.41;;;5.61;54.06
77288;BME280;66345;42.694;23.346;2024-03-22T02:24:45;95611.16;;;5.57;53.80
77288;BME280;66345;42.694;23.346;2024-03-22T02:27:10;95618.06;;;5.58;53.83
77288;BME280;66345;42.694;23.346;2024-03-22T02:29:36;95621.25;;;5.44;54.60
77288;BME280;66345;42.694;23.346;2024-03-22T02:32:01;95616.56;;;5.55;54.78
77288;BME280;66345;42.694;23.346;2024-03-22T02:34:28;95614.44;;;5.59;54.98
77288;BME280;66345;42.694;23.346;2024-03-22T02:36:54;95626.22;;;5.47;55.41
77288;BME280;66345;42.694;23.346;2024-03-22T02:39:19;95626.88;;;5.23;55.91
77288;BME280;66345;42.694;23.346;2024-03-22T02:41:45;95625.66;;;5.17;56.28
77288;BME280;66345;42.694;23.346;2024-03-22T02:44:10;95632.41;;;5.20;56.12
77288;BME280;66345;42.694;23.346;2024-03-22T02:46:35;95628.50;;;5.06;56.50
77288;BME280;66345;42.694;23.346;2024-03-22T02:49:01;95630.53;;;5.12;56.26
77288;BME280;66345;42.694;23.346;2024-03-22T02:51:26;95637.38;;;5.05;56.77
77288;BME280;66345;42.694;23.346;2024-03-22T02:53:52;95639.63;;;5.18;55.89
77288;BME280;66345;42.694;23.346;2024-03-22T02:56:17;95644.97;;;5.26;55.84
77288;BME280;66345;42.694;23.346;2024-03-22T02:58:43;95638.16;;;5.15;55.73
77288;BME280;66345;42.694;23.346;2024-03-22T03:01:08;95653.69;;;5.09;55.88
77288;BME280;66345;42.694;23.346;2024-03-22T03:03:34;95656.63;;;4.88;55.54
77288;BME280;66345;42.694;23.346;2024-03-22T03:05:59;95655.06;;;4.77;56.19
77288;BME280;66345;42.694;23.346;2024-03-22T03:08:25;95664.53;;;4.60;57.05
77288;BME280;66345;42.694;23.346;2024-03-22T03:10:50;95665.91;;;4.64;56.44
77288;BME280;66345;42.694;23.346;2024-03-22T03:13:16;95674.13;;;4.52;57.51
77288;BME280;66345;42.694;23.346;2024-03-22T03:15:41;95676.13;;;4.12;58.48
77288;BME280;66345;42.694;23.346;2024-03-22T03:18:07;95672.38;;;4.15;57.62
77288;BME280;66345;42.694;23.346;2024-03-22T03:20:32;95675.97;;;4.14;57.20
77288;BME280;66345;42.694;23.346;2024-03-22T03:22:58;95680.97;;;4.07;56.97
77288;BME280;66345;42.694;23.346;2024-03-22T03:25:25;95674.97;;;3.87;57.68
77288;BME280;66345;42.694;23.346;2024-03-22T03:27:51;95676.31;;;4.01;57.45
77288;BME280;66345;42.694;23.346;2024-03-22T03:30:17;95680.34;;;3.96;57.73
77288;BME280;66345;42.694;23.346;2024-03-22T03:32:43;95681.69;;;4.00;58.05
77288;BME280;66345;42.694;23.346;2024-03-22T03:35:08;95679.72;;;4.11;57.27
77288;BME280;66345;42.694;23.346;2024-03-22T03:37:34;95681.47;;;4.21;57.69
77288;BME280;66345;42.694;23.346;2024-03-22T03:39:59;95685.09;;;4.20;57.43
77288;BME280;66345;42.694;23.346;2024-03-22T03:42:24;95684.09;;;4.21;57.04
77288;BME280;66345;42.694;23.346;2024-03-22T03:44:50;95699.50;;;4.06;58.35
77288;BME280;66345;42.694;23.346;2024-03-22T03:47:15;95688.78;;;3.89;58.48
77288;BME280;66345;42.694;23.346;2024-03-22T03:49:41;95698.09;;;4.11;58.55
77288;BME280;66345;42.694;23.346;2024-03-22T03:52:06;95686.63;;;4.12;58.26
77288;BME280;66345;42.694;23.346;2024-03-22T03:54:35;95698.25;;;4.10;58.02
77288;BME280;66345;42.694;23.346;2024-03-22T03:57:00;95700.25;;;3.88;58.66
77288;BME280;66345;42.694;23.346;2024-03-22T03:59:26;95694.03;;;3.89;59.06
77288;BME280;66345;42.694;23.346;2024-03-22T04:01:51;95700.78;;;3.92;58.61
77288;BME280;66345;42.694;23.346;2024-03-22T04:04:17;95701.91;;;3.89;59.20
77288;BME280;66345;42.694;23.346;2024-03-22T04:06:44;95704.28;;;4.20;58.80
77288;BME280;66345;42.694;23.346;2024-03-22T04:09:10;95697.47;;;3.90;58.59
77288;BME280;66345;42.694;23.346;2024-03-22T04:11:35;95709.22;;;3.96;59.31
77288;BME280;66345;42.694;23.346;2024-03-22T04:14:03;95693.63;;;3.84;58.82
77288;BME280;66345;42.694;23.346;2024-03-22T04:16:28;95704.75;;;3.49;59.92
77288;BME280;66345;42.694;23.346;2024-03-22T04:18:54;95706.97;;;3.44;60.25
77288;BME280;66345;42.694;23.346;2024-03-22T04:21:19;95716.19;;;3.39;60.75
77288;BME280;66345;42.694;23.346;2024-03-22T04:23:45;95715.13;;;3.12;61.19
77288;BME280;66345;42.694;23.346;2024-03-22T04:26:10;95710.28;;;3.08;61.61
77288;BME280;66345;42.694;23.346;2024-03-22T04:28:36;95718.28;;;3.35;61.02
77288;BME280;66345;42.694;23.346;2024-03-22T04:31:03;95722.13;;;3.60;60.18
77288;BME280;66345;42.694;23.346;2024-03-22T04:33:30;95725.69;;;3.88;58.80
77288;BME280;66345;42.694;23.346;2024-03-22T04:35:56;95726.47;;;3.98;58.91
77288;BME280;66345;42.694;23.346;2024-03-22T04:38:22;95732.66;;;4.07;58.31
77288;BME280;66345;42.694;23.346;2024-03-22T04:40:48;95729.09;;;3.98;58.76
77288;BME280;66345;42.694;23.346;2024-03-22T04:43:17;95734.69;;;4.23;59.14
77288;BME280;66345;42.694;23.346;2024-03-22T04:45:43;95733.22;;;4.10;59.78
77288;BME280;66345;42.694;23.346;2024-03-22T04:48:09;95736.94;;;4.08;59.42
77288;BME280;66345;42.694;23.346;2024-03-22T04:50:35;95734.75;;;4.03;59.78
77288;BME280;66345;42.694;23.346;2024-03-22T04:53:02;95719.00;;;4.03;59.64
77288;BME280;66345;42.694;23.346;2024-03-22T04:55:27;95737.81;;;4.36;59.25
77288;BME280;66345;42.694;23.346;2024-03-22T04:57:53;95732.09;;;4.50;58.92
77288;BME280;66345;42.694;23.346;2024-03-22T05:00:18;95734.56;;;4.61;58.34
77288;BME280;66345;42.694;23.346;2024-03-22T05:02:44;95741.41;;;4.72;57.97
77288;BME280;66345;42.694;23.346;2024-03-22T05:05:09;95728.94;;;4.74;57.85
77288;BME280;66345;42.694;23.346;2024-03-22T05:07:35;95735.56;;;4.78;57.60
77288;BME280;66345;42.694;23.346;2024-03-22T05:10:01;95746.56;;;4.91;56.90
77288;BME280;66345;42.694;23.346;2024-03-22T05:12:27;95739.69;;;4.81;56.61
77288;BME280;66345;42.694;23.346;2024-03-22T05:14:53;95731.41;;;4.76;56.71
77288;BME280;66345;42.694;23.346;2024-03-22T05:17:18;95728.09;;;4.73;57.03
77288;BME280;66345;42.694;23.346;2024-03-22T05:19:44;95734.31;;;5.00;56.51
77288;BME280;66345;42.694;23.346;2024-03-22T05:22:10;95739.50;;;5.10;55.88
77288;BME280;66345;42.694;23.346;2024-03-22T05:24:35;95747.72;;;5.07;55.63
77288;BME280;66345;42.694;23.346;2024-03-22T05:27:01;95755.06;;;5.03;56.73
77288;BME280;66345;42.694;23.346;2024-03-22T05:29:26;95750.75;;;5.29;56.15
77288;BME280;66345;42.694;23.346;2024-03-22T05:31:52;95753.44;;;5.38;55.18
77288;BME280;66345;42.694;23.346;2024-03-22T05:34:18;95756.88;;;5.56;55.40
77288;BME280;66345;42.694;23.346;2024-03-22T05:36:45;95751.41;;;5.67;53.99
77288;BME280;66345;42.694;23.346;2024-03-22T05:39:10;95750.56;;;5.67;54.15
77288;BME280;66345;42.694;23.346;2024-03-22T05:41:39;95752.88;;;5.88;53.77
77288;BME280;66345;42.694;23.346;2024-03-22T05:44:05;95758.28;;;6.04;52.62
77288;BME280;66345;42.694;23.346;2024-03-22T05:46:34;95764.84;;;6.00;52.36
77288;BME280;66345;42.694;23.346;2024-03-22T05:49:00;95754.75;;;6.13;51.97
77288;BME280;66345;42.694;23.346;2024-03-22T05:51:26;95754.97;;;6.20;52.17
77288;BME280;66345;42.694;23.346;2024-03-22T05:53:51;95759.19;;;6.38;51.68
77288;BME280;66345;42.694;23.346;2024-03-22T05:56:17;95757.53;;;6.37;51.59
77288;BME280;66345;42.694;23.346;2024-03-22T05:58:42;95764.50;;;6.47;51.38
77288;BME280;66345;42.694;23.346;2024-03-22T06:01:11;95763.59;;;6.64;51.17
77288;BME280;66345;42.694;23.346;2024-03-22T06:06:34;95753.66;;;6.92;50.47
77288;BME280;66345;42.694;23.346;2024-03-22T06:09:00;95760.88;;;7.40;50.00
77288;BME280;66345;42.694;23.346;2024-03-22T06:11:29;95762.06;;;8.11;47.63
77288;BME280;66345;42.694;23.346;2024-03-22T06:13:55;95745.72;;;9.72;43.04
77288;BME280;66345;42.694;23.346;2024-03-22T06:16:21;95752.50;;;9.98;41.30
77288;BME280;66345;42.694;23.346;2024-03-22T06:18:46;95744.84;;;10.18;41.45
77288;BME280;66345;42.694;23.346;2024-03-22T06:21:12;95747.97;;;11.39;39.68
77288;BME280;66345;42.694;23.346;2024-03-22T06:23:39;95732.88;;;13.23;36.39
77288;BME280;66345;42.694;23.346;2024-03-22T06:26:07;95731.25;;;14.36;33.33
77288;BME280;66345;42.694;23.346;2024-03-22T06:28:32;95735.09;;;14.80;32.99
77288;BME280;66345;42.694;23.346;2024-03-22T06:30:58;95731.59;;;15.89;30.66
77288;BME280;66345;42.694;23.346;2024-03-22T06:33:23;95740.94;;;15.79;30.56
77288;BME280;66345;42.694;23.346;2024-03-22T06:35:49;95735.47;;;15.93;30.29
77288;BME280;66345;42.694;23.346;2024-03-22T06:38:14;95732.75;;;15.68;30.18
77288;BME280;66345;42.694;23.346;2024-03-22T06:40:40;95730.13;;;15.48;30.63
77288;BME280;66345;42.694;23.346;2024-03-22T06:43:06;95743.78;;;15.33;31.07
77288;BME280;66345;42.694;23.346;2024-03-22T06:45:32;95748.69;;;16.19;29.83
77288;BME280;66345;42.694;23.346;2024-03-22T06:47:57;95746.56;;;16.03;29.86
77288;BME280;66345;42.694;23.346;2024-03-22T06:50:23;95748.28;;;15.39;30.15
77288;BME280;66345;42.694;23.346;2024-03-22T06:52:51;95757.03;;;15.73;30.04
77288;BME280;66345;42.694;23.346;2024-03-22T06:55:18;95761.69;;;16.72;29.01
77288;BME280;66345;42.694;23.346;2024-03-22T06:57:46;95759.88;;;17.28;27.56
77288;BME280;66345;42.694;23.346;2024-03-22T07:00:12;95756.00;;;17.90;26.63
77288;BME280;66345;42.694;23.346;2024-03-22T07:02:39;95761.94;;;17.62;26.79
77288;BME280;66345;42.694;23.346;2024-03-22T07:05:06;95757.66;;;18.21;26.38
77288;BME280;66345;42.694;23.346;2024-03-22T07:07:32;95757.50;;;19.17;25.29
77288;BME280;66345;42.694;23.346;2024-03-22T07:09:57;95747.34;;;18.95;25.61
77288;BME280;66345;42.694;23.346;2024-03-22T07:12:23;95758.97;;;20.00;24.04
77288;BME280;66345;42.694;23.346;2024-03-22T07:14:48;95764.88;;;19.09;25.46
77288;BME280;66345;42.694;23.346;2024-03-22T07:17:13;95753.56;;;19.71;24.36
77288;BME280;66345;42.694;23.346;2024-03-22T07:19:40;95761.84;;;19.29;25.10
77288;BME280;66345;42.694;23.346;2024-03-22T07:22:06;95753.97;;;19.91;23.80
77288;BME280;66345;42.694;23.346;2024-03-22T07:24:32;95763.78;;;19.98;24.44
77288;BME280;66345;42.694;23.346;2024-03-22T07:27:01;95770.94;;;20.83;23.25
77288;BME280;66345;42.694;23.346;2024-03-22T07:29:26;95769.63;;;21.02;23.14
77288;BME280;66345;42.694;23.346;2024-03-22T07:31:52;95765.31;;;21.40;21.99
77288;BME280;66345;42.694;23.346;2024-03-22T07:34:20;95752.88;;;20.66;23.02
77288;BME280;66345;42.694;23.346;2024-03-22T07:36:45;95769.72;;;19.71;23.93
77288;BME280;66345;42.694;23.346;2024-03-22T07:39:10;95762.13;;;21.26;22.33
77288;BME280;66345;42.694;23.346;2024-03-22T07:41:36;95748.53;;;21.81;21.66
77288;BME280;66345;42.694;23.346;2024-03-22T07:44:02;95759.88;;;20.84;22.32
77288;BME280;66345;42.694;23.346;2024-03-22T07:46:28;95769.34;;;21.59;21.54
77288;BME280;66345;42.694;23.346;2024-03-22T07:48:53;95761.03;;;21.87;21.75
77288;BME280;66345;42.694;23.346;2024-03-22T07:51:22;95755.56;;;22.58;20.16
77288;BME280;66345;42.694;23.346;2024-03-22T07:53:47;95757.03;;;23.50;19.74
77288;BME280;66345;42.694;23.346;2024-03-22T07:56:13;95753.09;;;22.57;20.28
77288;BME280;66345;42.694;23.346;2024-03-22T07:58:39;95769.00;;;22.21;20.45
77288;BME280;66345;42.694;23.346;2024-03-22T08:01:04;95754.81;;;24.10;18.82
77288;BME280;66345;42.694;23.346;2024-03-22T08:03:30;95757.84;;;24.19;18.57
77288;BME280;66345;42.694;23.346;2024-03-22T08:05:56;95756.59;;;22.25;19.57
77288;BME280;66345;42.694;23.346;2024-03-22T08:08:21;95763.97;;;22.30;20.79
77288;BME280;66345;42.694;23.346;2024-03-22T08:10:47;95741.91;;;22.43;20.42
77288;BME280;66345;42.694;23.346;2024-03-22T08:13:13;95756.91;;;23.77;19.32
77288;BME280;66345;42.694;23.346;2024-03-22T08:15:44;95742.69;;;24.28;18.28
77288;BME280;66345;42.694;23.346;2024-03-22T08:18:11;95754.91;;;25.48;17.04
77288;BME280;66345;42.694;23.346;2024-03-22T08:20:38;95759.44;;;23.00;18.79
77288;BME280;66345;42.694;23.346;2024-03-22T08:23:05;95760.19;;;22.90;19.55
77288;BME280;66345;42.694;23.346;2024-03-22T08:25:30;95750.59;;;25.01;17.68
77288;BME280;66345;42.694;23.346;2024-03-22T08:27:56;95738.78;;;25.66;16.99
77288;BME280;66345;42.694;23.346;2024-03-22T08:30:23;95738.16;;;25.90;16.48
77288;BME280;66345;42.694;23.346;2024-03-22T08:32:52;95737.25;;;26.15;16.48
77288;BME280;66345;42.694;23.346;2024-03-22T08:35:20;95737.91;;;26.41;16.28
77288;BME280;66345;42.694;23.346;2024-03-22T08:37:46;95740.97;;;26.68;16.22
77288;BME280;66345;42.694;23.346;2024-03-22T08:40:12;95742.16;;;23.06;19.15
77288;BME280;66345;42.694;23.346;2024-03-22T08:42:39;95752.34;;;22.07;20.01
77288;BME280;66345;42.694;23.346;2024-03-22T08:45:05;95754.72;;;22.04;20.76
77288;BME280;66345;42.694;23.346;2024-03-22T08:47:34;95748.94;;;24.39;18.25
77288;BME280;66345;42.694;23.346;2024-03-22T08:50:00;95746.53;;;22.21;19.99
77288;BME280;66345;42.694;23.346;2024-03-22T08:52:25;95756.91;;;21.58;21.13
77288;BME280;66345;42.694;23.346;2024-03-22T08:55:00;95742.69;;;22.38;20.68
77288;BME280;66345;42.694;23.346;2024-03-22T08:57:25;95745.63;;;23.48;18.83
77288;BME280;66345;42.694;23.346;2024-03-22T08:59:51;95732.13;;;24.37;17.81
77288;BME280;66345;42.694;23.346;2024-03-22T09:02:17;95748.69;;;25.32;17.20
77288;BME280;66345;42.694;23.346;2024-03-22T09:04:42;95740.25;;;26.08;16.37
77288;BME280;66345;42.694;23.346;2024-03-22T09:07:08;95754.41;;;22.49;19.23
77288;BME280;66345;42.694;23.346;2024-03-22T09:09:33;95748.13;;;23.08;19.40
77288;BME280;66345;42.694;23.346;2024-03-22T09:11:59;95728.47;;;25.63;16.70
77288;BME280;66345;42.694;23.346;2024-03-22T09:14:24;95714.91;;;25.53;16.65
77288;BME280;66345;42.694;23.346;2024-03-22T09:16:51;95724.38;;;26.99;15.67
77288;BME280;66345;42.694;23.346;2024-03-22T09:19:16;95722.50;;;23.83;18.49
77288;BME280;66345;42.694;23.346;2024-03-22T09:21:42;95724.94;;;22.85;18.74
77288;BME280;66345;42.694;23.346;2024-03-22T09:24:07;95728.13;;;22.45;19.44
77288;BME280;66345;42.694;23.346;2024-03-22T09:26:33;95720.84;;;21.69;20.60
77288;BME280;66345;42.694;23.346;2024-03-22T09:28:59;95724.88;;;22.80;18.67
77288;BME280;66345;42.694;23.346;2024-03-22T09:31:24;95720.47;;;24.46;17.79
77288;BME280;66345;42.694;23.346;2024-03-22T09:33:50;95706.91;;;25.92;16.52
77288;BME280;66345;42.694;23.346;2024-03-22T09:36:15;95714.50;;;24.54;17.96
77288;BME280;66345;42.694;23.346;2024-03-22T09:38:41;95715.88;;;24.37;17.32
77288;BME280;66345;42.694;23.346;2024-03-22T09:41:07;95714.31;;;22.78;19.42
77288;BME280;66345;42.694;23.346;2024-03-22T09:43:33;95708.22;;;25.00;17.30
77288;BME280;66345;42.694;23.346;2024-03-22T09:46:00;95712.53;;;24.04;18.48
77288;BME280;66345;42.694;23.346;2024-03-22T09:48:29;95717.78;;;24.41;17.83
77288;BME280;66345;42.694;23.346;2024-03-22T09:50:57;95708.53;;;24.88;17.25
77288;BME280;66345;42.694;23.346;2024-03-22T09:53:25;95715.59;;;24.43;16.81
77288;BME280;66345;42.694;23.346;2024-03-22T09:58:44;95703.91;;;23.44;19.01
77288;BME280;66345;42.694;23.346;2024-03-22T10:01:11;95711.47;;;25.32;16.97
77288;BME280;66345;42.694;23.346;2024-03-22T10:03:37;95689.38;;;26.09;16.87
77288;BME280;66345;42.694;23.346;2024-03-22T10:06:03;95706.34;;;24.39;17.78
77288;BME280;66345;42.694;23.346;2024-03-22T10:08:29;95703.41;;;23.00;19.12
77288;BME280;66345;42.694;23.346;2024-03-22T10:10:55;95689.97;;;23.83;18.24
77288;BME280;66345;42.694;23.346;2024-03-22T10:13:21;95690.72;;;26.55;16.05
77288;BME280;66345;42.694;23.346;2024-03-22T10:15:47;95688.72;;;24.82;17.17
77288;BME280;66345;42.694;23.346;2024-03-22T10:18:12;95697.72;;;22.32;19.04
77288;BME280;66345;42.694;23.346;2024-03-22T10:20:40;95701.88;;;21.64;20.15
77288;BME280;66345;42.694;23.346;2024-03-22T10:23:07;95704.38;;;20.38;21.27
77288;BME280;66345;42.694;23.346;2024-03-22T10:25:34;95680.94;;;21.76;20.45
77288;BME280;66345;42.694;23.346;2024-03-22T10:28:00;95689.53;;;21.46;20.48
77288;BME280;66345;42.694;23.346;2024-03-22T10:30:25;95694.03;;;20.80;20.92
77288;BME280;66345;42.694;23.346;2024-03-22T10:32:52;95671.09;;;23.36;18.42
77288;BME280;66345;42.694;23.346;2024-03-22T10:35:18;95676.44;;;22.09;19.79
77288;BME280;66345;42.694;23.346;2024-03-22T10:37:44;95665.91;;;21.85;20.06
77288;BME280;66345;42.694;23.346;2024-03-22T10:40:10;95658.97;;;22.22;19.27
77288;BME280;66345;42.694;23.346;2024-03-22T10:42:40;95668.97;;;19.15;22.71
77288;BME280;66345;42.694;23.346;2024-03-22T10:45:08;95664.78;;;20.21;21.92
77288;BME280;66345;42.694;23.346;2024-03-22T10:47:36;95673.34;;;18.57;23.59
77288;BME280;66345;42.694;23.346;2024-03-22T10:50:08;95672.84;;;18.14;25.16
77288;BME280;66345;42.694;23.346;2024-03-22T10:53:00;95676.13;;;17.26;26.07
77288;BME280;66345;42.694;23.346;2024-03-22T10:55:32;95666.72;;;17.35;25.76
77288;BME280;66345;42.694;23.346;2024-03-22T10:57:58;95652.91;;;16.40;26.66
77288;BME280;66345;42.694;23.346;2024-03-22T11:00:32;95658.56;;;16.31;26.62
77288;BME280;66345;42.694;23.346;2024-03-22T11:02:58;95650.56;;;16.50;26.26
77288;BME280;66345;42.694;23.346;2024-03-22T11:05:25;95662.28;;;16.55;26.48
77288;BME280;66345;42.694;23.346;2024-03-22T11:08:04;95650.03;;;16.41;26.68
77288;BME280;66345;42.694;23.346;2024-03-22T11:10:30;95651.38;;;16.94;26.38
77288;BME280;66345;42.694;23.346;2024-03-22T11:13:01;95654.94;;;16.26;27.17
77288;BME280;66345;42.694;23.346;2024-03-22T11:15:28;95634.03;;;16.34;27.25
77288;BME280;66345;42.694;23.346;2024-03-22T11:17:54;95632.81;;;16.12;26.85
77288;BME280;66345;42.694;23.346;2024-03-22T11:20:19;95628.09;;;16.32;27.07
77288;BME280;66345;42.694;23.346;2024-03-22T11:22:45;95642.16;;;15.71;28.00
77288;BME280;66345;42.694;23.346;2024-03-22T11:25:10;95629.31;;;15.48;28.35
77288;BME280;66345;42.694;23.346;2024-03-22T11:27:36;95637.47;;;15.67;28.08
77288;BME280;66345;42.694;23.346;2024-03-22T11:30:01;95637.16;;;15.81;27.75
77288;BME280;66345;42.694;23.346;2024-03-22T11:32:28;95624.69;;;15.69;27.51
77288;BME280;66345;42.694;23.346;2024-03-22T11:34:54;95620.50;;;16.04;27.64
77288;BME280;66345;42.694;23.346;2024-03-22T11:37:20;95626.19;;;15.26;28.29
77288;BME280;66345;42.694;23.346;2024-03-22T11:39:45;95614.75;;;15.44;27.87
77288;BME280;66345;42.694;23.346;2024-03-22T11:42:14;95606.50;;;15.46;27.61
77288;BME280;66345;42.694;23.346;2024-03-22T11:44:41;95625.09;;;15.72;27.59
77288;BME280;66345;42.694;23.346;2024-03-22T11:47:06;95611.78;;;14.89;28.76
77288;BME280;66345;42.694;23.346;2024-03-22T11:49:33;95614.31;;;15.16;28.20
77288;BME280;66345;42.694;23.346;2024-03-22T11:52:00;95621.28;;;14.65;28.93
77288;BME280;66345;42.694;23.346;2024-03-22T11:54:25;95603.34;;;14.86;28.88
77288;BME280;66345;42.694;23.346;2024-03-22T11:56:51;95606.25;;;15.22;28.30
77288;BME280;66345;42.694;23.346;2024-03-22T11:59:23;95602.75;;;15.53;28.20
77288;BME280;66345;42.694;23.346;2024-03-22T12:01:48;95586.09;;;15.83;27.16
77288;BME280;66345;42.694;23.346;2024-03-22T12:04:14;95587.41;;;15.74;27.35
77288;BME280;66345;42.694;23.346;2024-03-22T12:06:46;95583.94;;;15.73;27.28
77288;BME280;66345;42.694;23.346;2024-03-22T12:09:12;95577.78;;;15.91;27.23
77288;BME280;66345;42.694;23.346;2024-03-22T12:11:39;95593.00;;;15.72;27.97
77288;BME280;66345;42.694;23.346;2024-03-22T12:14:05;95581.31;;;15.67;27.68
77288;BME280;66345;42.694;23.346;2024-03-22T12:16:31;95570.06;;;15.51;27.02
77288;BME280;66345;42.694;23.346;2024-03-22T12:18:57;95573.34;;;15.22;27.45
77288;BME280;66345;42.694;23.346;2024-03-22T12:21:23;95570.00;;;14.95;27.48
77288;BME280;66345;42.694;23.346;2024-03-22T12:23:48;95569.06;;;15.46;27.24
77288;BME280;66345;42.694;23.346;2024-03-22T12:26:14;95573.09;;;15.62;27.25
77288;BME280;66345;42.694;23.346;2024-03-22T12:28:39;95552.47;;;15.69;27.69
77288;BME280;66345;42.694;23.346;2024-03-22T12:31:05;95559.34;;;15.83;26.97
77288;BME280;66345;42.694;23.346;2024-03-22T12:33:30;95562.53;;;15.42;27.24
77288;BME280;66345;42.694;23.346;2024-03-22T12:35:56;95553.94;;;15.33;27.45
77288;BME280;66345;42.694;23.346;2024-03-22T12:38:21;95542.69;;;15.81;26.76
77288;BME280;66345;42.694;23.346;2024-03-22T12:40:47;95541.31;;;15.97;26.97
77288;BME280;66345;42.694;23.346;2024-03-22T12:43:13;95538.78;;;16.02;26.84
77288;BME280;66345;42.694;23.346;2024-03-22T12:45:39;95536.41;;;15.69;27.89
77288;BME280;66345;42.694;23.346;2024-03-22T12:48:05;95554.19;;;15.25;27.73
77288;BME280;66345;42.694;23.346;2024-03-22T12:50:30;95555.22;;;15.55;27.90
77288;BME280;66345;42.694;23.346;2024-03-22T12:52:56;95542.81;;;15.36;27.69
77288;BME280;66345;42.694;23.346;2024-03-22T12:55:22;95547.22;;;15.24;27.67